createdAt,value
2022-08-18T00:02:07.259Z,96736.81
2022-08-18T00:04:48.663Z,96734.13
2022-08-18T00:07:22.648Z,96735.81
2022-08-18T00:09:49.842Z,96727.94
2022-08-18T00:12:18.620Z,96725.22
2022-08-18T00:14:46.396Z,96722.88
2022-08-18T00:17:13.950Z,96728.19
2022-08-18T00:19:47.066Z,96733.00
2022-08-18T00:22:20.837Z,96732.63
2022-08-18T00:24:51.988Z,96733.75
2022-08-18T00:27:23.712Z,96736.94
2022-08-18T00:29:57.449Z,96732.91
2022-08-18T00:32:30.231Z,96732.19
2022-08-18T00:34:56.882Z,96732.28
2022-08-18T00:37:24.339Z,96736.69
2022-08-18T00:39:53.502Z,96731.09
2022-08-18T00:42:30.636Z,96733.59
2022-08-18T00:45:01.596Z,96742.72
2022-08-18T00:47:41.913Z,96737.59
2022-08-18T00:50:22.798Z,96742.91
2022-08-18T00:52:57.418Z,96739.56
2022-08-18T00:55:25.278Z,96739.19
2022-08-18T00:57:55.887Z,96741.13
2022-08-18T01:00:22.900Z,96749.34
2022-08-18T01:02:59.031Z,96744.19
2022-08-18T01:05:43.333Z,96757.28
2022-08-18T01:08:17.184Z,96746.78
2022-08-18T01:10:55.614Z,96746.63
2022-08-18T01:13:27.719Z,96737.53
2022-08-18T01:15:54.378Z,96743.16
2022-08-18T01:18:39.917Z,96735.38
2022-08-18T01:21:34.647Z,96741.69
2022-08-18T01:24:05.578Z,96739.19
2022-08-18T01:26:45.601Z,96736.84
2022-08-18T01:29:18.655Z,96737.28
2022-08-18T01:31:55.709Z,96736.78
2022-08-18T01:34:25.907Z,96745.53
2022-08-18T01:36:54.238Z,96748.34
2022-08-18T01:41:25.812Z,96749.94
2022-08-18T01:42:09.747Z,96750.75
2022-08-18T01:44:36.765Z,96750.75
2022-08-18T01:47:03.599Z,96747.09
2022-08-18T01:49:30.295Z,96744.28
2022-08-18T01:51:56.919Z,96746.44
2022-08-18T01:54:23.543Z,96747.19
2022-08-18T01:56:50.245Z,96751.56
2022-08-18T01:59:17.292Z,96751.88
2022-08-18T02:01:50.349Z,96744.50
2022-08-18T02:04:36.129Z,96740.53
2022-08-18T02:07:09.233Z,96746.41
2022-08-18T02:09:38.523Z,96740.69
2022-08-18T02:12:07.621Z,96736.81
2022-08-18T02:14:35.754Z,96740.31
2022-08-18T02:17:04.942Z,96723.28
2022-08-18T02:19:43.991Z,96720.50
2022-08-18T02:22:13.975Z,96718.34
2022-08-18T02:24:40.939Z,96720.91
2022-08-18T02:27:09.044Z,96724.84
2022-08-18T02:29:36.892Z,96724.16
2022-08-18T02:32:04.526Z,96732.69
2022-08-18T02:34:31.195Z,96731.38
2022-08-18T02:37:00.117Z,96737.25
2022-08-18T02:39:27.656Z,96731.22
2022-08-18T02:41:54.339Z,96734.97
2022-08-18T02:44:21.069Z,96737.47
2022-08-18T02:46:52.680Z,96735.34
2022-08-18T02:49:19.445Z,96730.84
2022-08-18T02:51:46.400Z,96726.22
2022-08-18T02:54:13.055Z,96728.28
2022-08-18T02:56:42.097Z,96723.28
2022-08-18T02:59:27.651Z,96724.09
2022-08-18T03:01:56.220Z,96728.28
2022-08-18T03:04:29.630Z,96725.19
2022-08-18T03:06:59.791Z,96727.53
2022-08-18T03:09:27.114Z,96728.69
2022-08-18T03:11:54.600Z,96732.69
2022-08-18T03:14:22.062Z,96733.09
2022-08-18T03:16:54.119Z,96740.34
2022-08-18T03:19:25.706Z,96737.06
2022-08-18T03:21:52.932Z,96737.00
2022-08-18T03:24:22.910Z,96741.13
2022-08-18T03:26:51.691Z,96727.31
2022-08-18T03:29:18.746Z,96735.03
2022-08-18T03:31:45.672Z,96736.22
2022-08-18T03:34:12.809Z,96730.63
2022-08-18T03:36:39.886Z,96730.03
2022-08-18T03:39:10.149Z,96739.38
2022-08-18T03:41:43.878Z,96731.22
2022-08-18T03:44:27.870Z,96729.41
2022-08-18T03:46:54.468Z,96734.13
2022-08-18T03:49:21.086Z,96733.97
2022-08-18T03:51:48.707Z,96725.66
2022-08-18T03:54:18.360Z,96727.19
2022-08-18T03:56:46.715Z,96722.53
2022-08-18T03:59:19.748Z,96718.25
2022-08-18T04:01:48.259Z,96716.25
2022-08-18T04:04:19.097Z,96714.38
2022-08-18T04:06:55.703Z,96709.47
2022-08-18T04:09:24.629Z,96706.47
2022-08-18T04:11:52.047Z,96713.13
2022-08-18T04:14:24.079Z,96710.31
2022-08-18T04:16:51.050Z,96708.63
2022-08-18T04:19:26.536Z,96700.63
2022-08-18T04:21:58.185Z,96701.16
2022-08-18T04:24:28.221Z,96701.81
2022-08-18T04:26:59.735Z,96704.19
2022-08-18T04:29:26.769Z,96705.31
2022-08-18T04:31:53.405Z,96705.75
2022-08-18T04:34:21.287Z,96700.03
2022-08-18T04:36:48.236Z,96701.25
2022-08-18T04:39:15.745Z,96698.25
2022-08-18T04:41:44.044Z,96697.66
2022-08-18T04:44:12.642Z,96708.53
2022-08-18T04:46:47.593Z,96710.19
2022-08-18T04:49:16.119Z,96715.53
2022-08-18T04:52:34.312Z,96717.88
2022-08-18T04:54:54.854Z,96729.38
2022-08-18T04:57:22.911Z,96724.88
2022-08-18T04:59:52.202Z,96734.53
2022-08-18T05:02:21.431Z,96735.25
2022-08-18T05:04:48.779Z,96734.25
2022-08-18T05:07:18.929Z,96737.41
2022-08-18T05:09:46.450Z,96739.25
2022-08-18T05:12:15.021Z,96741.47
2022-08-18T05:14:44.668Z,96741.31
2022-08-18T05:17:12.755Z,96737.31
2022-08-18T05:19:42.373Z,96739.69
2022-08-18T05:22:11.100Z,96736.25
2022-08-18T05:24:39.606Z,96746.38
2022-08-18T05:27:07.580Z,96749.75
2022-08-18T05:29:41.718Z,96748.63
2022-08-18T05:32:37.148Z,96755.63
2022-08-18T05:35:05.148Z,96752.19
2022-08-18T05:37:44.118Z,96757.88
2022-08-18T05:40:11.816Z,96754.59
2022-08-18T05:42:40.393Z,96765.75
2022-08-18T05:45:12.938Z,96766.13
2022-08-18T05:47:39.630Z,96770.03
2022-08-18T05:50:10.591Z,96771.53
2022-08-18T05:52:50.604Z,96774.03
2022-08-18T05:55:47.921Z,96775.69
2022-08-18T05:58:33.556Z,96775.38
2022-08-18T06:01:23.819Z,96777.22
2022-08-18T06:03:56.703Z,96773.25
2022-08-18T06:06:29.514Z,96764.25
2022-08-18T06:09:19.859Z,96767.28
2022-08-18T06:11:47.251Z,96768.63
2022-08-18T06:14:13.953Z,96765.53
2022-08-18T06:16:58.433Z,96767.72
2022-08-18T06:19:43.636Z,96769.69
2022-08-18T06:22:23.250Z,96771.03
2022-08-18T06:25:02.422Z,96773.47
2022-08-18T06:27:55.852Z,96773.00
2022-08-18T06:30:45.583Z,96779.22
2022-08-18T06:33:34.867Z,96776.44
2022-08-18T06:36:37.350Z,96776.50
2022-08-18T06:39:26.359Z,96777.91
2022-08-18T06:41:53.855Z,96769.06
2022-08-18T06:44:43.941Z,96776.41
2022-08-18T06:47:20.949Z,96777.72
2022-08-18T06:50:03.228Z,96777.06
2022-08-18T06:52:33.890Z,96771.91
2022-08-18T06:55:15.988Z,96772.56
2022-08-18T06:57:58.612Z,96777.75
2022-08-18T07:00:32.730Z,96778.91
2022-08-18T07:03:02.663Z,96787.78
2022-08-18T07:05:31.761Z,96777.75
2022-08-18T07:08:15.997Z,96781.41
2022-08-18T07:10:52.121Z,96789.63
2022-08-18T07:13:27.760Z,96784.28
2022-08-18T07:16:15.895Z,96792.13
2022-08-18T07:18:45.430Z,96793.47
2022-08-18T07:21:25.424Z,96789.59
2022-08-18T07:24:23.247Z,96792.78
2022-08-18T07:27:18.738Z,96800.47
2022-08-18T07:30:28.772Z,96798.63
2022-08-18T07:33:04.723Z,96802.78
2022-08-18T07:35:43.078Z,96803.97
2022-08-18T07:38:41.494Z,96797.44
2022-08-18T07:41:16.567Z,96805.16
2022-08-18T07:43:51.331Z,96807.81
2022-08-18T07:46:43.501Z,96810.63
2022-08-18T07:49:18.235Z,96812.16
2022-08-18T07:51:56.754Z,96808.47
2022-08-18T07:54:48.878Z,96811.16
2022-08-18T07:57:27.360Z,96810.66
2022-08-18T08:00:35.020Z,96811.50
2022-08-18T08:03:22.934Z,96810.34
2022-08-18T08:07:06.475Z,96820.88
2022-08-18T08:09:59.018Z,96814.34
2022-08-18T08:13:06.102Z,96820.88
2022-08-18T08:15:50.651Z,96822.38
2022-08-18T08:18:52.477Z,96830.56
2022-08-18T08:21:21.975Z,96827.88
2022-08-18T08:24:09.471Z,96821.84
2022-08-18T08:27:07.271Z,96826.56
2022-08-18T08:29:46.156Z,96825.34
2022-08-18T08:32:19.437Z,96824.34
2022-08-18T08:35:47.146Z,96814.34
2022-08-18T08:38:23.230Z,96813.13
2022-08-18T08:41:03.482Z,96806.00
2022-08-18T08:43:34.548Z,96806.47
2022-08-18T08:46:15.769Z,96811.47
2022-08-18T08:49:03.224Z,96810.06
2022-08-18T08:51:32.719Z,96813.84
2022-08-18T08:54:08.183Z,96815.72
2022-08-18T08:56:40.712Z,96811.63
2022-08-18T08:59:11.015Z,96811.50
2022-08-18T09:01:40.676Z,96806.81
2022-08-18T09:04:34.576Z,96814.66
2022-08-18T09:07:25.763Z,96814.72
2022-08-18T09:10:21.037Z,96807.75
2022-08-18T09:13:06.459Z,96810.13
2022-08-18T09:16:12.355Z,96809.28
2022-08-18T09:19:01.766Z,96809.84
2022-08-18T09:21:46.782Z,96812.53
2022-08-18T09:24:27.319Z,96829.19
2022-08-18T09:27:18.984Z,96836.97
2022-08-18T09:29:58.443Z,96836.78
2022-08-18T09:32:26.045Z,96837.13
2022-08-18T09:35:11.447Z,96836.34
2022-08-18T09:38:28.545Z,96837.66
2022-08-18T09:41:18.803Z,96835.53
2022-08-18T09:44:12.051Z,96837.53
2022-08-18T09:46:48.361Z,96830.94
2022-08-18T09:49:26.527Z,96841.22
2022-08-18T09:55:30.743Z,96820.03
2022-08-18T09:58:26.167Z,96815.56
2022-08-18T10:01:37.219Z,96815.91
2022-08-18T10:07:38.880Z,96804.09
2022-08-18T10:10:59.934Z,96806.75
2022-08-18T10:13:48.872Z,96808.34
2022-08-18T10:17:13.141Z,96815.22
2022-08-18T10:19:52.993Z,96811.22
2022-08-18T10:22:43.202Z,96815.41
2022-08-18T10:25:23.114Z,96806.19
2022-08-18T10:27:54.882Z,96802.94
2022-08-18T10:30:34.593Z,96794.06
2022-08-18T10:33:17.702Z,96790.34
2022-08-18T10:36:02.281Z,96785.34
2022-08-18T10:38:47.844Z,96800.69
2022-08-18T10:41:23.153Z,96794.50
2022-08-18T10:43:55.838Z,96797.88
2022-08-18T10:46:31.943Z,96792.38
2022-08-18T10:49:17.488Z,96796.63
2022-08-18T10:51:59.300Z,96796.06
2022-08-18T10:54:56.151Z,96790.13
2022-08-18T10:57:25.804Z,96797.88
2022-08-18T11:00:02.717Z,96779.13
2022-08-18T11:03:50.504Z,96781.88
2022-08-18T11:09:00.292Z,96769.78
2022-08-18T11:11:52.849Z,96759.50
2022-08-18T11:14:41.902Z,96755.50
2022-08-18T11:17:54.646Z,96753.38
2022-08-18T11:20:27.171Z,96747.59
2022-08-18T11:23:00.125Z,96751.41
2022-08-18T11:25:36.511Z,96739.59
2022-08-18T11:28:14.257Z,96746.38
2022-08-18T11:30:49.041Z,96765.69
2022-08-18T11:33:23.186Z,96769.88
2022-08-18T11:36:01.480Z,96796.88
2022-08-18T11:38:31.248Z,96831.59
2022-08-18T11:41:18.978Z,96828.13
2022-08-18T11:43:48.361Z,96816.88
2022-08-18T11:46:27.664Z,96800.03
2022-08-18T11:48:55.064Z,96791.47
2022-08-18T11:51:27.012Z,96763.41
2022-08-18T11:54:19.193Z,96733.84
2022-08-18T11:56:45.894Z,96732.22
2022-08-18T11:59:53.195Z,96750.16
2022-08-18T12:02:21.795Z,96781.97
2022-08-18T12:04:55.071Z,96785.09
2022-08-18T12:07:37.141Z,96781.84
2022-08-18T12:10:19.993Z,96782.75
2022-08-18T12:12:54.056Z,96768.50
2022-08-18T12:15:44.131Z,96753.03
2022-08-18T12:21:05.419Z,96752.38
2022-08-18T12:23:44.403Z,96757.69
2022-08-18T12:26:26.895Z,96750.88
2022-08-18T12:29:02.093Z,96743.53
2022-08-18T12:31:42.596Z,96742.47
2022-08-18T12:34:14.951Z,96753.38
2022-08-18T12:36:42.432Z,96766.25
2022-08-18T12:39:10.359Z,96755.53
2022-08-18T12:41:37.654Z,96744.13
2022-08-18T12:44:04.608Z,96736.84
2022-08-18T12:46:42.880Z,96733.97
2022-08-18T12:49:35.957Z,96742.91
2022-08-18T12:52:04.699Z,96745.16
2022-08-18T12:54:32.804Z,96736.97
2022-08-18T12:57:01.176Z,96737.59
2022-08-18T12:59:33.101Z,96730.38
2022-08-18T13:02:04.621Z,96724.13
2022-08-18T13:04:31.190Z,96723.00
2022-08-18T13:07:01.868Z,96717.06
2022-08-18T13:09:35.252Z,96718.56
2022-08-18T13:12:16.597Z,96722.75
2022-08-18T13:14:44.127Z,96716.91
2022-08-18T13:17:30.158Z,96725.25
2022-08-18T13:19:59.583Z,96733.34
2022-08-18T13:22:32.734Z,96738.31
2022-08-18T13:25:05.353Z,96728.28
2022-08-18T13:27:35.546Z,96733.25
2022-08-18T13:30:16.714Z,96740.34
2022-08-18T13:33:00.315Z,96745.09
2022-08-18T13:35:38.141Z,96750.84
2022-08-18T13:38:21.974Z,96746.88
2022-08-18T13:40:54.922Z,96746.66
2022-08-18T13:43:32.190Z,96753.47
2022-08-18T13:45:59.857Z,96741.47
2022-08-18T13:48:28.390Z,96733.50
2022-08-18T13:50:59.953Z,96715.66
2022-08-18T13:53:29.577Z,96715.38
2022-08-18T13:55:59.054Z,96721.88
2022-08-18T13:58:27.173Z,96714.41
2022-08-18T14:01:22.664Z,96711.69
2022-08-18T14:03:47.476Z,96724.34
2022-08-18T14:06:15.808Z,96724.34
2022-08-18T14:08:49.636Z,96721.25
2022-08-18T14:11:17.267Z,96722.03
2022-08-18T14:13:44.473Z,96714.19
2022-08-18T14:16:18.438Z,96714.94
2022-08-18T14:19:09.683Z,96718.38
2022-08-18T14:22:00.952Z,96718.91
2022-08-18T14:24:48.876Z,96709.53
2022-08-18T14:27:35.851Z,96702.72
2022-08-18T14:30:13.889Z,96705.63
2022-08-18T14:32:48.897Z,96707.25
2022-08-18T14:36:04.431Z,96701.41
2022-08-18T14:38:04.032Z,96710.00
2022-08-18T14:40:33.347Z,96705.47
2022-08-18T14:43:01.971Z,96708.50
2022-08-18T14:45:35.196Z,96717.50
2022-08-18T14:48:07.367Z,96720.41
2022-08-18T14:50:39.163Z,96723.28
2022-08-18T14:53:06.665Z,96723.31
2022-08-18T14:55:34.253Z,96721.84
2022-08-18T14:58:01.226Z,96722.56
2022-08-18T15:00:28.601Z,96708.38
2022-08-18T15:02:57.443Z,96721.41
2022-08-18T15:05:31.757Z,96709.22
2022-08-18T15:08:03.687Z,96708.66
2022-08-18T15:10:31.563Z,96713.19
2022-08-18T15:13:00.576Z,96710.22
2022-08-18T15:15:28.560Z,96696.72
2022-08-18T15:18:15.515Z,96703.41
2022-08-18T15:21:10.297Z,96723.72
2022-08-18T15:24:04.969Z,96695.81
2022-08-18T15:26:42.499Z,96704.25
2022-08-18T15:29:10.927Z,96706.94
2022-08-18T15:32:02.375Z,96705.66
2022-08-18T15:34:28.722Z,96704.69
2022-08-18T15:36:57.042Z,96702.66
2022-08-18T15:39:25.356Z,96703.69
2022-08-18T15:41:56.259Z,96710.03
2022-08-18T15:44:23.023Z,96708.13
2022-08-18T15:46:53.106Z,96708.00
2022-08-18T15:49:21.823Z,96713.25
2022-08-18T15:51:50.030Z,96699.22
2022-08-18T15:54:19.531Z,96697.81
2022-08-18T15:56:57.641Z,96698.88
2022-08-18T15:59:41.253Z,96707.13
2022-08-18T16:02:11.467Z,96702.81
2022-08-18T16:04:41.225Z,96695.16
2022-08-18T16:07:09.986Z,96702.09
2022-08-18T16:09:36.883Z,96702.28
2022-08-18T16:12:03.839Z,96702.47
2022-08-18T16:14:31.557Z,96693.97
2022-08-18T16:16:58.152Z,96696.66
2022-08-18T16:19:25.695Z,96703.91
2022-08-18T16:21:55.096Z,96701.25
2022-08-18T16:24:21.874Z,96708.25
2022-08-18T16:26:48.440Z,96716.56
2022-08-18T16:29:15.144Z,96720.28
2022-08-18T16:31:41.775Z,96727.69
2022-08-18T16:34:09.463Z,96727.88
2022-08-18T16:36:36.323Z,96725.31
2022-08-18T16:39:03.277Z,96731.38
2022-08-18T16:41:31.867Z,96724.50
2022-08-18T16:43:58.489Z,96728.13
2022-08-18T16:46:27.614Z,96716.84
2022-08-18T16:48:55.810Z,96716.16
2022-08-18T16:51:25.307Z,96714.28
2022-08-18T16:53:53.449Z,96705.53
2022-08-18T16:56:23.363Z,96703.38
2022-08-18T16:59:18.051Z,96703.84
2022-08-18T17:02:03.056Z,96708.53
2022-08-18T17:04:34.626Z,96702.19
2022-08-18T17:07:05.784Z,96710.84
2022-08-18T17:09:33.466Z,96700.56
2022-08-18T17:12:01.307Z,96707.03
2022-08-18T17:14:30.075Z,96711.16
2022-08-18T17:16:58.434Z,96703.72
2022-08-18T17:19:29.977Z,96703.44
2022-08-18T17:21:56.932Z,96700.88
2022-08-18T17:24:31.150Z,96708.56
2022-08-18T17:27:26.676Z,96696.28
2022-08-18T17:30:18.015Z,96696.81
2022-08-18T17:32:54.361Z,96694.72
2022-08-18T17:35:29.414Z,96690.94
2022-08-18T17:38:19.559Z,96693.50
2022-08-18T17:40:52.983Z,96694.50
2022-08-18T17:43:22.967Z,96699.63
2022-08-18T17:45:57.174Z,96704.44
2022-08-18T17:48:37.723Z,96703.16
2022-08-18T17:51:30.609Z,96710.09
2022-08-18T17:54:09.714Z,96701.13
2022-08-18T17:56:42.614Z,96702.31
2022-08-18T17:59:45.959Z,96710.47
2022-08-18T18:02:19.009Z,96709.38
2022-08-18T18:04:55.779Z,96706.59
2022-08-18T18:07:33.832Z,96712.31
2022-08-18T18:10:10.912Z,96717.41
2022-08-18T18:12:38.694Z,96716.28
2022-08-18T18:15:10.089Z,96715.81
2022-08-18T18:17:39.599Z,96713.19
2022-08-18T18:20:24.861Z,96707.72
2022-08-18T18:22:52.171Z,96710.09
2022-08-18T18:25:34.589Z,96718.69
2022-08-18T18:28:02.122Z,96714.41
2022-08-18T18:30:32.852Z,96724.66
2022-08-18T18:33:02.601Z,96725.22
2022-08-18T18:35:53.319Z,96712.06
2022-08-18T18:38:35.280Z,96710.44
2022-08-18T18:41:06.821Z,96712.69
2022-08-18T18:43:47.387Z,96714.25
2022-08-18T18:46:18.365Z,96713.63
2022-08-18T18:49:15.803Z,96717.13
2022-08-18T18:52:13.219Z,96716.31
2022-08-18T18:54:54.642Z,96717.69
2022-08-18T18:57:40.344Z,96721.25
2022-08-18T19:00:21.064Z,96720.44
2022-08-18T19:02:47.705Z,96728.81
2022-08-18T19:05:20.667Z,96728.50
2022-08-18T19:07:59.310Z,96729.03
2022-08-18T19:10:37.478Z,96729.44
2022-08-18T19:13:08.418Z,96738.84
2022-08-18T19:15:38.375Z,96734.88
2022-08-18T19:18:21.741Z,96740.44
2022-08-18T19:22:02.297Z,96737.41
2022-08-18T19:23:46.310Z,96736.56
2022-08-18T19:26:22.713Z,96736.28
2022-08-18T19:29:12.452Z,96744.47
2022-08-18T19:31:47.182Z,96740.66
2022-08-18T19:34:31.493Z,96739.81
2022-08-18T19:37:01.580Z,96747.00
2022-08-18T19:39:45.971Z,96741.66
2022-08-18T19:42:51.811Z,96740.13
2022-08-18T19:45:32.771Z,96738.63
2022-08-18T19:48:11.603Z,96735.63
2022-08-18T19:50:43.213Z,96741.50
2022-08-18T19:53:14.492Z,96739.31
2022-08-18T19:56:02.314Z,96734.66
2022-08-18T19:59:17.076Z,96736.50
2022-08-18T20:02:35.078Z,96737.31
2022-08-18T20:05:32.753Z,96729.97
2022-08-18T20:08:32.167Z,96731.81
2022-08-18T20:11:41.916Z,96730.31
2022-08-18T20:14:17.113Z,96733.31
2022-08-18T20:17:12.804Z,96734.81
2022-08-18T20:19:46.912Z,96739.16
2022-08-18T20:22:21.914Z,96735.25
2022-08-18T20:25:13.823Z,96738.25
2022-08-18T20:27:49.393Z,96742.91
2022-08-18T20:30:29.714Z,96743.75
2022-08-18T20:33:29.160Z,96739.84
2022-08-18T20:36:07.991Z,96742.00
2022-08-18T20:38:45.638Z,96749.47
2022-08-18T20:41:34.029Z,96745.72
2022-08-18T20:44:29.344Z,96747.00
2022-08-18T20:47:11.220Z,96747.91
2022-08-18T20:49:59.967Z,96744.38
2022-08-18T20:52:56.219Z,96751.84
2022-08-18T20:55:41.085Z,96738.84
2022-08-18T20:58:15.662Z,96735.97
2022-08-18T21:00:47.788Z,96745.25
2022-08-18T21:03:16.754Z,96747.41
2022-08-18T21:05:45.298Z,96751.38
2022-08-18T21:08:16.422Z,96753.16
2022-08-18T21:10:59.787Z,96739.16
2022-08-18T21:13:51.400Z,96745.97
2022-08-18T21:16:38.698Z,96738.75
2022-08-18T21:19:08.721Z,96751.00
2022-08-18T21:21:39.584Z,96752.28
2022-08-18T21:24:18.176Z,96750.50
2022-08-18T21:26:48.109Z,96751.69
2022-08-18T21:29:16.387Z,96748.84
2022-08-18T21:31:45.469Z,96760.34
2022-08-18T21:34:14.184Z,96764.00
2022-08-18T21:36:53.536Z,96761.19
2022-08-18T21:39:21.453Z,96768.72
2022-08-18T21:41:52.605Z,96771.22
2022-08-18T21:44:27.308Z,96760.13
2022-08-18T21:47:14.404Z,96761.63
2022-08-18T21:50:17.214Z,96762.63
2022-08-18T21:52:56.083Z,96755.47
2022-08-18T21:55:36.892Z,96754.31
2022-08-18T21:58:18.435Z,96763.81
2022-08-18T22:01:06.067Z,96769.31
2022-08-18T22:03:34.379Z,96766.13
2022-08-18T22:06:16.243Z,96766.97
2022-08-18T22:09:21.902Z,96776.47
2022-08-18T22:12:07.370Z,96766.97
2022-08-18T22:14:54.636Z,96772.28
2022-08-18T22:17:35.053Z,96777.94
2022-08-18T22:20:50.067Z,96769.25
2022-08-18T22:23:35.427Z,96769.94
2022-08-18T22:26:12.345Z,96770.41
2022-08-18T22:29:20.267Z,96770.16
2022-08-18T22:31:49.880Z,96772.16
2022-08-18T22:34:28.395Z,96762.81
2022-08-18T22:37:04.040Z,96757.41
2022-08-18T22:39:53.903Z,96766.63
2022-08-18T22:42:24.390Z,96770.00
2022-08-18T22:44:51.272Z,96773.16
2022-08-18T22:47:18.353Z,96765.84
2022-08-18T22:49:45.972Z,96781.13
2022-08-18T22:52:15.551Z,96777.25
2022-08-18T22:54:42.131Z,96769.72
2022-08-18T22:57:10.428Z,96773.38
2022-08-18T22:59:37.563Z,96773.91
2022-08-18T23:02:10.532Z,96772.22
2022-08-18T23:04:37.262Z,96766.06
2022-08-18T23:07:03.937Z,96776.16
2022-08-18T23:09:33.345Z,96771.00
2022-08-18T23:12:06.986Z,96770.84
2022-08-18T23:14:34.723Z,96771.16
2022-08-18T23:17:02.271Z,96783.03
2022-08-18T23:19:31.466Z,96778.97
2022-08-18T23:22:02.772Z,96783.09
2022-08-18T23:24:29.711Z,96786.59
2022-08-18T23:26:57.365Z,96789.34
2022-08-18T23:29:23.994Z,96784.94
2022-08-18T23:31:51.707Z,96789.97
2022-08-18T23:34:22.881Z,96788.81
2022-08-18T23:36:56.804Z,96790.47
2022-08-18T23:39:25.434Z,96791.91
2022-08-18T23:41:53.597Z,96797.22
2022-08-18T23:44:22.490Z,96795.69
2022-08-18T23:46:54.151Z,96793.44
2022-08-18T23:49:20.937Z,96794.88
2022-08-18T23:51:50.951Z,96800.22
2022-08-18T23:54:25.531Z,96803.03
2022-08-18T23:56:52.101Z,96800.53
2022-08-18T23:59:20.970Z,96802.88
